sensor_id;sensor_type;location;lat;lon;timestamp;temperature;humidity
8684;DHT22;4379;59.744;18.206;2022-07-01T00:00:24;19.50;99.90
8684;DHT22;4379;59.744;18.206;2022-07-01T00:02:52;19.30;99.90
8684;DHT22;4379;59.744;18.206;2022-07-01T00:05:19;19.30;99.90
8684;DHT22;4379;59.744;18.206;2022-07-01T00:07:47;19.20;99.90
8684;DHT22;4379;59.744;18.206;2022-07-01T00:10:15;19.20;99.90
8684;DHT22;4379;59.744;18.206;2022-07-01T00:12:43;19.10;99.90
8684;DHT22;4379;59.744;18.206;2022-07-01T00:15:10;19.10;99.90
8684;DHT22;4379;59.744;18.206;2022-07-01T00:17:38;19.10;99.90
8684;DHT22;4379;59.744;18.206;2022-07-01T00:20:07;19.00;99.90
8684;DHT22;4379;59.744;18.206;2022-07-01T00:22:37;19.00;99.90
8684;DHT22;4379;59.744;18.206;2022-07-01T00:25:06;19.00;99.90
8684;DHT22;4379;59.744;18.206;2022-07-01T00:27:37;19.00;99.90
8684;DHT22;4379;59.744;18.206;2022-07-01T00:30:07;18.90;99.90
8684;DHT22;4379;59.744;18.206;2022-07-01T00:32:36;18.90;99.90
8684;DHT22;4379;59.744;18.206;2022-07-01T00:35:04;18.90;99.90
8684;DHT22;4379;59.744;18.206;2022-07-01T00:37:31;19.00;99.90
8684;DHT22;4379;59.744;18.206;2022-07-01T00:39:59;19.00;99.90
8684;DHT22;4379;59.744;18.206;2022-07-01T00:42:26;19.00;99.90
8684;DHT22;4379;59.744;18.206;2022-07-01T00:44:54;19.10;99.90
8684;DHT22;4379;59.744;18.206;2022-07-01T00:47:21;19.10;99.90
8684;DHT22;4379;59.744;18.206;2022-07-01T00:49:49;19.20;99.90
8684;DHT22;4379;59.744;18.206;2022-07-01T00:52:16;19.20;99.90
8684;DHT22;4379;59.744;18.206;2022-07-01T00:54:44;19.20;99.90
8684;DHT22;4379;59.744;18.206;2022-07-01T00:57:12;19.30;99.90
8684;DHT22;4379;59.744;18.206;2022-07-01T00:59:40;19.20;99.90
8684;DHT22;4379;59.744;18.206;2022-07-01T01:02:08;19.20;99.90
8684;DHT22;4379;59.744;18.206;2022-07-01T01:04:36;19.10;99.90
8684;DHT22;4379;59.744;18.206;2022-07-01T01:07:04;19.10;99.90
8684;DHT22;4379;59.744;18.206;2022-07-01T01:09:32;19.10;99.90
8684;DHT22;4379;59.744;18.206;2022-07-01T01:12:01;19.10;99.90
8684;DHT22;4379;59.744;18.206;2022-07-01T01:14:48;19.20;99.90
8684;DHT22;4379;59.744;18.206;2022-07-01T01:17:16;19.20;99.90
8684;DHT22;4379;59.744;18.206;2022-07-01T01:19:45;19.20;99.90
8684;DHT22;4379;59.744;18.206;2022-07-01T01:22:14;19.20;99.90
8684;DHT22;4379;59.744;18.206;2022-07-01T01:24:43;19.20;99.90
8684;DHT22;4379;59.744;18.206;2022-07-01T01:27:11;19.20;99.90
8684;DHT22;4379;59.744;18.206;2022-07-01T01:29:39;19.20;99.90
8684;DHT22;4379;59.744;18.206;2022-07-01T01:32:07;19.20;99.90
8684;DHT22;4379;59.744;18.206;2022-07-01T01:34:36;19.20;99.90
8684;DHT22;4379;59.744;18.206;2022-07-01T01:37:06;19.20;99.90
8684;DHT22;4379;59.744;18.206;2022-07-01T01:39:34;19.20;99.90
8684;DHT22;4379;59.744;18.206;2022-07-01T01:42:05;19.20;99.90
8684;DHT22;4379;59.744;18.206;2022-07-01T01:44:33;19.20;99.90
8684;DHT22;4379;59.744;18.206;2022-07-01T01:47:03;19.20;99.90
8684;DHT22;4379;59.744;18.206;2022-07-01T01:49:31;19.20;99.90
8684;DHT22;4379;59.744;18.206;2022-07-01T01:51:59;19.30;99.90
8684;DHT22;4379;59.744;18.206;2022-07-01T01:54:27;19.20;99.90
8684;DHT22;4379;59.744;18.206;2022-07-01T01:56:54;19.30;99.90
8684;DHT22;4379;59.744;18.206;2022-07-01T01:59:22;19.30;99.90
8684;DHT22;4379;59.744;18.206;2022-07-01T02:01:49;19.30;99.90
8684;DHT22;4379;59.744;18.206;2022-07-01T02:04:17;19.30;99.90
8684;DHT22;4379;59.744;18.206;2022-07-01T02:06:45;19.30;99.90
8684;DHT22;4379;59.744;18.206;2022-07-01T02:09:12;19.30;99.90
8684;DHT22;4379;59.744;18.206;2022-07-01T02:11:40;19.40;99.90
8684;DHT22;4379;59.744;18.206;2022-07-01T02:14:08;19.40;99.90
8684;DHT22;4379;59.744;18.206;2022-07-01T02:16:35;19.50;99.90
8684;DHT22;4379;59.744;18.206;2022-07-01T02:19:03;19.60;99.90
8684;DHT22;4379;59.744;18.206;2022-07-01T02:21:31;19.70;99.90
8684;DHT22;4379;59.744;18.206;2022-07-01T02:23:59;19.70;99.90
8684;DHT22;4379;59.744;18.206;2022-07-01T02:26:26;19.70;99.90
8684;DHT22;4379;59.744;18.206;2022-07-01T02:28:53;19.70;99.90
8684;DHT22;4379;59.744;18.206;2022-07-01T02:31:21;19.70;99.90
8684;DHT22;4379;59.744;18.206;2022-07-01T02:33:48;19.70;99.90
8684;DHT22;4379;59.744;18.206;2022-07-01T02:36:16;19.70;99.90
8684;DHT22;4379;59.744;18.206;2022-07-01T02:38:43;19.70;99.90
8684;DHT22;4379;59.744;18.206;2022-07-01T02:41:10;19.80;99.90
8684;DHT22;4379;59.744;18.206;2022-07-01T02:43:38;19.90;99.90
8684;DHT22;4379;59.744;18.206;2022-07-01T02:46:05;20.00;99.90
8684;DHT22;4379;59.744;18.206;2022-07-01T02:48:33;20.00;99.90
8684;DHT22;4379;59.744;18.206;2022-07-01T02:51:00;20.10;99.90
8684;DHT22;4379;59.744;18.206;2022-07-01T02:53:28;20.20;99.90
8684;DHT22;4379;59.744;18.206;2022-07-01T02:55:55;20.20;99.90
8684;DHT22;4379;59.744;18.206;2022-07-01T02:58:25;20.20;99.90
8684;DHT22;4379;59.744;18.206;2022-07-01T03:00:53;20.20;99.90
8684;DHT22;4379;59.744;18.206;2022-07-01T03:03:20;20.30;99.90
8684;DHT22;4379;59.744;18.206;2022-07-01T03:05:48;20.30;99.90
8684;DHT22;4379;59.744;18.206;2022-07-01T03:08:16;20.30;99.90
8684;DHT22;4379;59.744;18.206;2022-07-01T03:10:43;20.40;99.90
8684;DHT22;4379;59.744;18.206;2022-07-01T03:13:10;20.40;99.90
8684;DHT22;4379;59.744;18.206;2022-07-01T03:15:38;20.50;99.90
8684;DHT22;4379;59.744;18.206;2022-07-01T03:18:06;20.50;99.90
8684;DHT22;4379;59.744;18.206;2022-07-01T03:20:33;20.60;99.90
8684;DHT22;4379;59.744;18.206;2022-07-01T03:23:01;20.60;99.90
8684;DHT22;4379;59.744;18.206;2022-07-01T03:25:29;20.70;99.90
8684;DHT22;4379;59.744;18.206;2022-07-01T03:27:56;20.70;99.90
8684;DHT22;4379;59.744;18.206;2022-07-01T03:30:24;20.70;99.90
8684;DHT22;4379;59.744;18.206;2022-07-01T03:32:51;20.70;99.90
8684;DHT22;4379;59.744;18.206;2022-07-01T03:35:19;20.60;99.90
8684;DHT22;4379;59.744;18.206;2022-07-01T03:38:07;20.40;99.90
8684;DHT22;4379;59.744;18.206;2022-07-01T03:40:34;20.50;99.90
8684;DHT22;4379;59.744;18.206;2022-07-01T03:43:03;20.40;99.90
8684;DHT22;4379;59.744;18.206;2022-07-01T03:45:31;20.20;99.90
8684;DHT22;4379;59.744;18.206;2022-07-01T03:47:58;20.20;99.90
8684;DHT22;4379;59.744;18.206;2022-07-01T03:50:26;20.20;99.90
8684;DHT22;4379;59.744;18.206;2022-07-01T03:52:54;20.10;99.90
8684;DHT22;4379;59.744;18.206;2022-07-01T03:55:40;20.00;99.90
8684;DHT22;4379;59.744;18.206;2022-07-01T03:58:08;20.00;99.90
8684;DHT22;4379;59.744;18.206;2022-07-01T04:00:37;20.00;99.90
8684;DHT22;4379;59.744;18.206;2022-07-01T04:03:05;20.00;99.90
8684;DHT22;4379;59.744;18.206;2022-07-01T04:05:35;19.90;99.90
8684;DHT22;4379;59.744;18.206;2022-07-01T04:08:07;19.90;99.90
8684;DHT22;4379;59.744;18.206;2022-07-01T04:10:35;20.00;99.90
8684;DHT22;4379;59.744;18.206;2022-07-01T04:13:04;20.00;99.90
8684;DHT22;4379;59.744;18.206;2022-07-01T04:16:04;20.00;99.90
8684;DHT22;4379;59.744;18.206;2022-07-01T04:18:32;20.00;99.90
8684;DHT22;4379;59.744;18.206;2022-07-01T04:21:00;20.00;99.90
8684;DHT22;4379;59.744;18.206;2022-07-01T04:23:46;20.00;99.90
8684;DHT22;4379;59.744;18.206;2022-07-01T04:26:13;20.00;99.90
8684;DHT22;4379;59.744;18.206;2022-07-01T04:29:01;20.00;99.90
8684;DHT22;4379;59.744;18.206;2022-07-01T04:31:29;20.00;99.90
8684;DHT22;4379;59.744;18.206;2022-07-01T04:33:56;20.00;99.90
8684;DHT22;4379;59.744;18.206;2022-07-01T04:36:24;20.00;99.90
8684;DHT22;4379;59.744;18.206;2022-07-01T04:38:51;20.10;99.90
8684;DHT22;4379;59.744;18.206;2022-07-01T04:41:19;20.00;99.90
8684;DHT22;4379;59.744;18.206;2022-07-01T04:44:05;20.00;99.90
8684;DHT22;4379;59.744;18.206;2022-07-01T04:46:32;20.00;99.90
8684;DHT22;4379;59.744;18.206;2022-07-01T04:49:00;20.10;99.90
8684;DHT22;4379;59.744;18.206;2022-07-01T04:51:27;20.10;99.90
8684;DHT22;4379;59.744;18.206;2022-07-01T04:53:55;20.10;99.90
8684;DHT22;4379;59.744;18.206;2022-07-01T04:56:23;20.20;99.90
8684;DHT22;4379;59.744;18.206;2022-07-01T04:58:51;20.20;99.90
8684;DHT22;4379;59.744;18.206;2022-07-01T05:01:19;20.20;99.90
8684;DHT22;4379;59.744;18.206;2022-07-01T05:03:46;20.30;99.90
8684;DHT22;4379;59.744;18.206;2022-07-01T05:06:14;20.30;99.90
8684;DHT22;4379;59.744;18.206;2022-07-01T05:08:42;20.30;99.90
8684;DHT22;4379;59.744;18.206;2022-07-01T05:11:10;20.30;99.90
8684;DHT22;4379;59.744;18.206;2022-07-01T05:13:38;20.40;99.90
8684;DHT22;4379;59.744;18.206;2022-07-01T05:16:06;20.20;99.90
8684;DHT22;4379;59.744;18.206;2022-07-01T05:18:39;20.20;99.90
8684;DHT22;4379;59.744;18.206;2022-07-01T05:21:25;20.30;99.90
8684;DHT22;4379;59.744;18.206;2022-07-01T05:24:11;20.30;99.90
8684;DHT22;4379;59.744;18.206;2022-07-01T05:26:38;20.40;99.90
8684;DHT22;4379;59.744;18.206;2022-07-01T05:29:06;20.40;99.90
8684;DHT22;4379;59.744;18.206;2022-07-01T05:31:33;20.30;99.90
8684;DHT22;4379;59.744;18.206;2022-07-01T05:34:01;20.30;99.90
8684;DHT22;4379;59.744;18.206;2022-07-01T05:36:31;20.40;99.90
8684;DHT22;4379;59.744;18.206;2022-07-01T05:38:59;20.40;99.90
8684;DHT22;4379;59.744;18.206;2022-07-01T05:41:27;20.50;99.90
8684;DHT22;4379;59.744;18.206;2022-07-01T05:43:54;20.50;99.90
8684;DHT22;4379;59.744;18.206;2022-07-01T05:46:22;20.50;99.90
8684;DHT22;4379;59.744;18.206;2022-07-01T05:48:49;20.40;99.90
8684;DHT22;4379;59.744;18.206;2022-07-01T05:51:17;20.50;99.90
8684;DHT22;4379;59.744;18.206;2022-07-01T05:53:44;20.50;99.90
8684;DHT22;4379;59.744;18.206;2022-07-01T05:56:14;20.50;99.90
8684;DHT22;4379;59.744;18.206;2022-07-01T05:58:42;20.50;99.90
8684;DHT22;4379;59.744;18.206;2022-07-01T06:01:10;20.50;99.90
8684;DHT22;4379;59.744;18.206;2022-07-01T06:03:37;20.40;99.90
8684;DHT22;4379;59.744;18.206;2022-07-01T06:06:05;20.30;99.90
8684;DHT22;4379;59.744;18.206;2022-07-01T06:08:33;20.40;99.90
8684;DHT22;4379;59.744;18.206;2022-07-01T06:11:01;20.50;99.90
8684;DHT22;4379;59.744;18.206;2022-07-01T06:13:29;20.60;99.90
8684;DHT22;4379;59.744;18.206;2022-07-01T06:15:57;20.80;99.90
8684;DHT22;4379;59.744;18.206;2022-07-01T06:18:27;21.00;99.90
8684;DHT22;4379;59.744;18.206;2022-07-01T06:20:55;20.90;99.90
8684;DHT22;4379;59.744;18.206;2022-07-01T06:23:22;20.90;99.90
8684;DHT22;4379;59.744;18.206;2022-07-01T06:25:50;20.80;99.90
8684;DHT22;4379;59.744;18.206;2022-07-01T06:28:17;20.80;99.90
8684;DHT22;4379;59.744;18.206;2022-07-01T06:30:45;20.80;99.90
8684;DHT22;4379;59.744;18.206;2022-07-01T06:33:13;20.90;99.90
8684;DHT22;4379;59.744;18.206;2022-07-01T06:35:41;21.10;99.90
8684;DHT22;4379;59.744;18.206;2022-07-01T06:38:08;21.00;99.90
8684;DHT22;4379;59.744;18.206;2022-07-01T06:40:36;20.90;99.90
8684;DHT22;4379;59.744;18.206;2022-07-01T06:43:03;20.90;99.90
8684;DHT22;4379;59.744;18.206;2022-07-01T06:45:31;20.80;99.90
8684;DHT22;4379;59.744;18.206;2022-07-01T06:47:59;20.60;99.90
8684;DHT22;4379;59.744;18.206;2022-07-01T06:50:27;20.70;99.90
8684;DHT22;4379;59.744;18.206;2022-07-01T06:52:54;20.40;99.90
8684;DHT22;4379;59.744;18.206;2022-07-01T06:55:21;20.40;99.90
8684;DHT22;4379;59.744;18.206;2022-07-01T06:57:49;20.30;99.90
8684;DHT22;4379;59.744;18.206;2022-07-01T07:00:17;20.20;99.90
8684;DHT22;4379;59.744;18.206;2022-07-01T07:02:47;20.20;99.90
8684;DHT22;4379;59.744;18.206;2022-07-01T07:05:15;20.20;99.90
8684;DHT22;4379;59.744;18.206;2022-07-01T07:07:42;20.20;99.90
8684;DHT22;4379;59.744;18.206;2022-07-01T07:10:10;20.20;99.90
8684;DHT22;4379;59.744;18.206;2022-07-01T07:12:37;20.20;99.90
8684;DHT22;4379;59.744;18.206;2022-07-01T07:15:05;20.10;99.90
8684;DHT22;4379;59.744;18.206;2022-07-01T07:17:33;20.10;99.90
8684;DHT22;4379;59.744;18.206;2022-07-01T07:20:00;20.10;99.90
8684;DHT22;4379;59.744;18.206;2022-07-01T07:22:28;20.00;99.90
8684;DHT22;4379;59.744;18.206;2022-07-01T07:24:55;20.00;99.90
8684;DHT22;4379;59.744;18.206;2022-07-01T07:27:23;19.90;99.90
8684;DHT22;4379;59.744;18.206;2022-07-01T07:29:51;20.00;99.90
8684;DHT22;4379;59.744;18.206;2022-07-01T07:32:24;20.00;99.90
8684;DHT22;4379;59.744;18.206;2022-07-01T07:34:52;19.90;99.90
8684;DHT22;4379;59.744;18.206;2022-07-01T07:37:20;20.00;99.90
8684;DHT22;4379;59.744;18.206;2022-07-01T07:39:47;20.00;99.90
8684;DHT22;4379;59.744;18.206;2022-07-01T07:42:15;20.00;99.90
8684;DHT22;4379;59.744;18.206;2022-07-01T07:44:42;20.00;99.90
8684;DHT22;4379;59.744;18.206;2022-07-01T07:47:10;19.90;99.90
8684;DHT22;4379;59.744;18.206;2022-07-01T07:49:37;19.90;99.90
8684;DHT22;4379;59.744;18.206;2022-07-01T07:52:05;19.80;99.90
8684;DHT22;4379;59.744;18.206;2022-07-01T07:54:33;19.80;99.90
8684;DHT22;4379;59.744;18.206;2022-07-01T07:57:02;19.70;99.90
8684;DHT22;4379;59.744;18.206;2022-07-01T07:59:29;19.80;99.90
8684;DHT22;4379;59.744;18.206;2022-07-01T08:01:57;19.90;99.90
8684;DHT22;4379;59.744;18.206;2022-07-01T08:04:25;19.90;99.90
8684;DHT22;4379;59.744;18.206;2022-07-01T08:06:52;20.00;99.90
8684;DHT22;4379;59.744;18.206;2022-07-01T08:09:20;19.90;99.90
8684;DHT22;4379;59.744;18.206;2022-07-01T08:11:48;20.00;99.90
8684;DHT22;4379;59.744;18.206;2022-07-01T08:14:15;20.10;99.90
8684;DHT22;4379;59.744;18.206;2022-07-01T08:16:49;20.20;99.90
8684;DHT22;4379;59.744;18.206;2022-07-01T08:19:16;20.10;99.90
8684;DHT22;4379;59.744;18.206;2022-07-01T08:21:44;19.90;99.90
8684;DHT22;4379;59.744;18.206;2022-07-01T08:24:12;19.80;99.90
8684;DHT22;4379;59.744;18.206;2022-07-01T08:26:40;19.70;99.90
8684;DHT22;4379;59.744;18.206;2022-07-01T08:29:07;19.70;99.90
8684;DHT22;4379;59.744;18.206;2022-07-01T08:31:35;19.50;99.90
8684;DHT22;4379;59.744;18.206;2022-07-01T08:34:03;19.50;99.90
8684;DHT22;4379;59.744;18.206;2022-07-01T08:36:30;19.60;99.90
8684;DHT22;4379;59.744;18.206;2022-07-01T08:38:58;19.50;99.90
8684;DHT22;4379;59.744;18.206;2022-07-01T08:41:26;19.50;99.90
8684;DHT22;4379;59.744;18.206;2022-07-01T08:43:54;19.60;99.90
8684;DHT22;4379;59.744;18.206;2022-07-01T08:46:22;19.50;99.90
8684;DHT22;4379;59.744;18.206;2022-07-01T08:48:50;19.50;99.90
8684;DHT22;4379;59.744;18.206;2022-07-01T08:51:17;19.50;99.90
8684;DHT22;4379;59.744;18.206;2022-07-01T08:53:45;19.40;99.90
8684;DHT22;4379;59.744;18.206;2022-07-01T08:56:14;19.50;99.90
8684;DHT22;4379;59.744;18.206;2022-07-01T08:58:59;19.60;99.90
8684;DHT22;4379;59.744;18.206;2022-07-01T09:01:27;19.60;99.90
8684;DHT22;4379;59.744;18.206;2022-07-01T09:03:56;19.70;99.90
8684;DHT22;4379;59.744;18.206;2022-07-01T09:06:27;19.90;99.90
8684;DHT22;4379;59.744;18.206;2022-07-01T09:11:49;20.00;99.90
8684;DHT22;4379;59.744;18.206;2022-07-01T09:14:25;20.10;99.90
8684;DHT22;4379;59.744;18.206;2022-07-01T09:16:58;20.20;99.90
8684;DHT22;4379;59.744;18.206;2022-07-01T09:19:27;20.30;99.90
8684;DHT22;4379;59.744;18.206;2022-07-01T09:21:57;20.40;99.90
8684;DHT22;4379;59.744;18.206;2022-07-01T09:24:30;20.20;99.90
8684;DHT22;4379;59.744;18.206;2022-07-01T09:27:05;20.20;99.90
8684;DHT22;4379;59.744;18.206;2022-07-01T09:29:39;20.40;99.90
8684;DHT22;4379;59.744;18.206;2022-07-01T09:32:08;20.50;99.90
8684;DHT22;4379;59.744;18.206;2022-07-01T09:34:41;20.40;99.90
8684;DHT22;4379;59.744;18.206;2022-07-01T09:37:13;20.40;99.90
8684;DHT22;4379;59.744;18.206;2022-07-01T09:39:48;20.60;99.90
8684;DHT22;4379;59.744;18.206;2022-07-01T09:42:18;20.70;99.90
8684;DHT22;4379;59.744;18.206;2022-07-01T09:45:06;20.50;99.90
8684;DHT22;4379;59.744;18.206;2022-07-01T09:47:41;20.50;99.90
8684;DHT22;4379;59.744;18.206;2022-07-01T09:50:10;20.50;99.90
8684;DHT22;4379;59.744;18.206;2022-07-01T09:52:38;20.50;99.90
8684;DHT22;4379;59.744;18.206;2022-07-01T09:55:06;20.40;99.90
8684;DHT22;4379;59.744;18.206;2022-07-01T09:57:35;20.40;99.90
8684;DHT22;4379;59.744;18.206;2022-07-01T10:00:05;20.50;99.90
8684;DHT22;4379;59.744;18.206;2022-07-01T10:02:34;20.50;99.90
8684;DHT22;4379;59.744;18.206;2022-07-01T10:05:09;20.60;99.90
8684;DHT22;4379;59.744;18.206;2022-07-01T10:07:52;20.40;99.90
8684;DHT22;4379;59.744;18.206;2022-07-01T10:10:41;20.40;99.90
8684;DHT22;4379;59.744;18.206;2022-07-01T10:13:14;20.50;99.90
8684;DHT22;4379;59.744;18.206;2022-07-01T10:15:43;20.60;99.90
8684;DHT22;4379;59.744;18.206;2022-07-01T10:18:22;20.40;99.90
8684;DHT22;4379;59.744;18.206;2022-07-01T10:20:51;20.40;99.90
8684;DHT22;4379;59.744;18.206;2022-07-01T10:23:24;20.50;99.90
8684;DHT22;4379;59.744;18.206;2022-07-01T10:25:53;20.30;99.90
8684;DHT22;4379;59.744;18.206;2022-07-01T10:28:26;20.50;99.90
8684;DHT22;4379;59.744;18.206;2022-07-01T10:31:08;20.50;99.90
8684;DHT22;4379;59.744;18.206;2022-07-01T10:33:50;20.60;99.90
8684;DHT22;4379;59.744;18.206;2022-07-01T10:36:36;20.40;99.90
8684;DHT22;4379;59.744;18.206;2022-07-01T10:39:10;20.60;99.90
8684;DHT22;4379;59.744;18.206;2022-07-01T10:45:11;20.40;99.90
8684;DHT22;4379;59.744;18.206;2022-07-01T10:47:39;20.20;99.90
8684;DHT22;4379;59.744;18.206;2022-07-01T10:50:15;20.20;99.90
8684;DHT22;4379;59.744;18.206;2022-07-01T10:53:01;20.10;99.90
8684;DHT22;4379;59.744;18.206;2022-07-01T10:55:44;20.00;99.90
8684;DHT22;4379;59.744;18.206;2022-07-01T10:58:14;20.10;99.90
8684;DHT22;4379;59.744;18.206;2022-07-01T11:00:48;20.10;99.90
8684;DHT22;4379;59.744;18.206;2022-07-01T11:03:22;20.10;99.90
8684;DHT22;4379;59.744;18.206;2022-07-01T11:05:54;20.40;99.90
8684;DHT22;4379;59.744;18.206;2022-07-01T11:08:24;20.60;99.90
8684;DHT22;4379;59.744;18.206;2022-07-01T11:11:01;20.60;99.90
8684;DHT22;4379;59.744;18.206;2022-07-01T11:13:31;20.60;99.90
8684;DHT22;4379;59.744;18.206;2022-07-01T11:15:59;20.60;99.90
8684;DHT22;4379;59.744;18.206;2022-07-01T11:18:30;20.80;99.90
8684;DHT22;4379;59.744;18.206;2022-07-01T11:21:06;20.90;99.90
8684;DHT22;4379;59.744;18.206;2022-07-01T11:23:34;21.10;99.90
8684;DHT22;4379;59.744;18.206;2022-07-01T11:26:18;21.20;99.90
8684;DHT22;4379;59.744;18.206;2022-07-01T11:28:46;21.20;99.90
8684;DHT22;4379;59.744;18.206;2022-07-01T11:31:13;21.30;99.90
8684;DHT22;4379;59.744;18.206;2022-07-01T11:33:41;21.10;99.90
8684;DHT22;4379;59.744;18.206;2022-07-01T11:36:15;21.10;99.90
8684;DHT22;4379;59.744;18.206;2022-07-01T11:39:01;21.20;99.90
8684;DHT22;4379;59.744;18.206;2022-07-01T11:41:52;21.00;99.90
8684;DHT22;4379;59.744;18.206;2022-07-01T11:47:07;21.10;99.90
8684;DHT22;4379;59.744;18.206;2022-07-01T11:49:46;21.30;99.90
8684;DHT22;4379;59.744;18.206;2022-07-01T11:52:16;21.30;99.90
8684;DHT22;4379;59.744;18.206;2022-07-01T11:54:55;21.60;99.90
8684;DHT22;4379;59.744;18.206;2022-07-01T11:57:42;21.50;99.90
8684;DHT22;4379;59.744;18.206;2022-07-01T12:00:12;21.60;99.90
8684;DHT22;4379;59.744;18.206;2022-07-01T12:02:39;21.70;99.90
8684;DHT22;4379;59.744;18.206;2022-07-01T12:05:07;21.70;99.90
8684;DHT22;4379;59.744;18.206;2022-07-01T12:07:35;21.80;99.90
8684;DHT22;4379;59.744;18.206;2022-07-01T12:10:02;22.10;99.90
8684;DHT22;4379;59.744;18.206;2022-07-01T12:12:30;22.00;99.90
8684;DHT22;4379;59.744;18.206;2022-07-01T12:14:59;22.00;99.90
8684;DHT22;4379;59.744;18.206;2022-07-01T12:17:27;22.10;99.90
8684;DHT22;4379;59.744;18.206;2022-07-01T12:19:55;22.30;99.90
8684;DHT22;4379;59.744;18.206;2022-07-01T12:22:24;22.20;99.90
8684;DHT22;4379;59.744;18.206;2022-07-01T12:25:13;22.40;99.90
8684;DHT22;4379;59.744;18.206;2022-07-01T12:27:41;22.20;99.90
8684;DHT22;4379;59.744;18.206;2022-07-01T12:30:13;22.40;99.90
8684;DHT22;4379;59.744;18.206;2022-07-01T12:32:50;22.30;99.90
8684;DHT22;4379;59.744;18.206;2022-07-01T12:35:23;22.00;99.90
8684;DHT22;4379;59.744;18.206;2022-07-01T12:38:04;22.00;99.90
8684;DHT22;4379;59.744;18.206;2022-07-01T12:40:35;22.10;99.90
8684;DHT22;4379;59.744;18.206;2022-07-01T12:43:02;21.90;99.90
8684;DHT22;4379;59.744;18.206;2022-07-01T12:45:39;21.80;99.90
8684;DHT22;4379;59.744;18.206;2022-07-01T12:48:07;21.70;99.90
8684;DHT22;4379;59.744;18.206;2022-07-01T12:50:35;21.80;99.90
8684;DHT22;4379;59.744;18.206;2022-07-01T12:53:05;22.10;99.90
8684;DHT22;4379;59.744;18.206;2022-07-01T12:55:37;22.30;99.90
8684;DHT22;4379;59.744;18.206;2022-07-01T12:58:10;22.60;99.90
8684;DHT22;4379;59.744;18.206;2022-07-01T13:00:39;22.90;99.90
8684;DHT22;4379;59.744;18.206;2022-07-01T13:03:10;22.90;99.90
8684;DHT22;4379;59.744;18.206;2022-07-01T13:05:39;23.00;99.90
8684;DHT22;4379;59.744;18.206;2022-07-01T13:08:08;22.70;99.90
8684;DHT22;4379;59.744;18.206;2022-07-01T13:10:36;22.90;99.90
8684;DHT22;4379;59.744;18.206;2022-07-01T13:13:04;23.10;99.90
8684;DHT22;4379;59.744;18.206;2022-07-01T13:15:32;22.80;99.90
8684;DHT22;4379;59.744;18.206;2022-07-01T13:18:01;22.80;99.90
8684;DHT22;4379;59.744;18.206;2022-07-01T13:20:29;22.70;99.90
8684;DHT22;4379;59.744;18.206;2022-07-01T13:22:56;22.80;99.90
8684;DHT22;4379;59.744;18.206;2022-07-01T13:25:24;22.90;99.90
8684;DHT22;4379;59.744;18.206;2022-07-01T13:27:52;23.20;99.90
8684;DHT22;4379;59.744;18.206;2022-07-01T13:30:19;23.30;99.90
8684;DHT22;4379;59.744;18.206;2022-07-01T13:32:47;23.40;99.90
8684;DHT22;4379;59.744;18.206;2022-07-01T13:35:21;23.40;99.90
8684;DHT22;4379;59.744;18.206;2022-07-01T13:37:49;23.80;99.90
8684;DHT22;4379;59.744;18.206;2022-07-01T13:40:17;23.30;99.90
8684;DHT22;4379;59.744;18.206;2022-07-01T13:42:48;23.10;99.90
8684;DHT22;4379;59.744;18.206;2022-07-01T13:45:16;22.90;99.90
8684;DHT22;4379;59.744;18.206;2022-07-01T13:47:43;23.00;99.90
8684;DHT22;4379;59.744;18.206;2022-07-01T13:50:11;23.40;99.90
8684;DHT22;4379;59.744;18.206;2022-07-01T13:52:40;23.80;99.90
8684;DHT22;4379;59.744;18.206;2022-07-01T13:55:13;23.50;99.90
8684;DHT22;4379;59.744;18.206;2022-07-01T13:57:42;23.30;99.90
8684;DHT22;4379;59.744;18.206;2022-07-01T14:00:10;23.20;99.90
8684;DHT22;4379;59.744;18.206;2022-07-01T14:02:40;23.20;99.90
8684;DHT22;4379;59.744;18.206;2022-07-01T14:05:12;23.30;99.90
8684;DHT22;4379;59.744;18.206;2022-07-01T14:14:58;23.80;99.90
8684;DHT22;4379;59.744;18.206;2022-07-01T14:17:26;23.80;99.90
8684;DHT22;4379;59.744;18.206;2022-07-01T14:19:54;24.10;99.90
8684;DHT22;4379;59.744;18.206;2022-07-01T14:22:24;23.90;99.90
8684;DHT22;4379;59.744;18.206;2022-07-01T14:24:53;23.70;99.90
8684;DHT22;4379;59.744;18.206;2022-07-01T14:27:21;23.80;99.90
8684;DHT22;4379;59.744;18.206;2022-07-01T14:29:48;23.90;99.90
8684;DHT22;4379;59.744;18.206;2022-07-01T14:32:23;23.70;99.90
8684;DHT22;4379;59.744;18.206;2022-07-01T14:34:55;23.90;99.90
8684;DHT22;4379;59.744;18.206;2022-07-01T14:37:23;24.20;99.90
8684;DHT22;4379;59.744;18.206;2022-07-01T14:39:50;24.40;99.90
8684;DHT22;4379;59.744;18.206;2022-07-01T14:42:24;24.90;99.90
8684;DHT22;4379;59.744;18.206;2022-07-01T14:44:53;24.30;99.90
8684;DHT22;4379;59.744;18.206;2022-07-01T14:47:20;24.00;99.90
8684;DHT22;4379;59.744;18.206;2022-07-01T14:49:49;24.00;99.90
8684;DHT22;4379;59.744;18.206;2022-07-01T14:52:22;23.80;99.90
8684;DHT22;4379;59.744;18.206;2022-07-01T14:54:51;23.70;99.90
8684;DHT22;4379;59.744;18.206;2022-07-01T14:57:20;23.60;99.90
8684;DHT22;4379;59.744;18.206;2022-07-01T14:59:47;23.80;99.90
8684;DHT22;4379;59.744;18.206;2022-07-01T15:02:15;23.90;99.90
8684;DHT22;4379;59.744;18.206;2022-07-01T15:04:43;24.00;99.90
8684;DHT22;4379;59.744;18.206;2022-07-01T15:07:11;24.00;99.90
8684;DHT22;4379;59.744;18.206;2022-07-01T15:09:40;24.10;99.90
8684;DHT22;4379;59.744;18.206;2022-07-01T15:12:08;24.20;99.90
8684;DHT22;4379;59.744;18.206;2022-07-01T15:14:36;24.30;99.90
8684;DHT22;4379;59.744;18.206;2022-07-01T15:17:04;24.30;99.90
8684;DHT22;4379;59.744;18.206;2022-07-01T15:19:31;24.10;99.90
8684;DHT22;4379;59.744;18.206;2022-07-01T15:21:59;24.10;99.90
8684;DHT22;4379;59.744;18.206;2022-07-01T15:24:26;24.00;99.90
8684;DHT22;4379;59.744;18.206;2022-07-01T15:26:54;24.00;99.90
8684;DHT22;4379;59.744;18.206;2022-07-01T15:29:21;24.10;99.90
8684;DHT22;4379;59.744;18.206;2022-07-01T15:31:49;24.10;99.90
8684;DHT22;4379;59.744;18.206;2022-07-01T15:34:18;24.20;99.90
8684;DHT22;4379;59.744;18.206;2022-07-01T15:36:46;24.00;99.90
8684;DHT22;4379;59.744;18.206;2022-07-01T15:39:13;24.30;99.90
8684;DHT22;4379;59.744;18.206;2022-07-01T15:41:44;24.20;99.90
8684;DHT22;4379;59.744;18.206;2022-07-01T15:44:13;24.40;99.90
8684;DHT22;4379;59.744;18.206;2022-07-01T15:46:44;24.40;99.90
8684;DHT22;4379;59.744;18.206;2022-07-01T15:49:24;24.20;99.90
8684;DHT22;4379;59.744;18.206;2022-07-01T15:51:52;24.10;99.90
8684;DHT22;4379;59.744;18.206;2022-07-01T15:54:21;24.10;99.90
8684;DHT22;4379;59.744;18.206;2022-07-01T15:56:49;24.00;99.90
8684;DHT22;4379;59.744;18.206;2022-07-01T15:59:17;24.10;99.90
8684;DHT22;4379;59.744;18.206;2022-07-01T16:01:46;23.90;99.90
8684;DHT22;4379;59.744;18.206;2022-07-01T16:04:16;24.00;99.90
8684;DHT22;4379;59.744;18.206;2022-07-01T16:06:44;23.90;99.90
8684;DHT22;4379;59.744;18.206;2022-07-01T16:09:12;23.50;99.90
8684;DHT22;4379;59.744;18.206;2022-07-01T16:11:40;23.50;99.90
8684;DHT22;4379;59.744;18.206;2022-07-01T16:14:12;23.60;99.90
8684;DHT22;4379;59.744;18.206;2022-07-01T16:16:39;23.80;99.90